Portada
METAR-TAF:

METAR-TAF

Aeropuertos :

Aeropuerto de Uagadugú

Uagadugú, Burkina Faso

latitud: 12-21N, longitud: 001-31W, altitud: 316 m

Observación

El informe se hizo hace 6 horas y 46 minutos, a las 21:00 UTC
Viento 8 kt del oeste
Temperatura 29°C
Humedad 52%
Presión 1011 hPa
Visibilidad 10 km o más
sin nubes por debajo de 1500 m y sin presencia de cumulonimbus.

METAR: DFFD 212100Z 28008KT CAVOK 29/18 Q1011 NOSIG

Hora: 03:46 (03:46 UTC)

Pronóstico

El informe se hizo hace 4 horas y 46 minutos, a las 23:00 UTC
Pronóstico válido del 22 a las 00 UTC al 23 a las 06 UTC
Viento 8 kt con dirección variable
Visibilidad 10 km o más
sin nubes por debajo de 1500 m y sin presencia de cumulonimbus.
Probabilidad 30% :
Temporalmente
del 22 a las 15 UTC al 22 a las 22 UTC
Escasas nubes a una altura de 2600 ft
Escasas nubes a una altura de 4000 ft, Cumulonimbus.
tormenta

TAF: DFFD 212300Z 2200/2306 VRB08KT CAVOK PROB30 TEMPO 2215/2222 TS FEW026 FEW040CB

Observaciones y pronósticos meteorológicos de más de 4000 aeropuertos (mensajes METAR y TAF).

Los puntos amarillos y rojos representan las estaciones disponibles.

Ponga el ratón en el punto deseado para ver el nombre de la estación.

Haga clic para ver las observaciones y los pronósticos meteorológicos.

Para cambiar el mapa : haga clic en los botones verdes con una cruz de color negro para hacer un zoom, en el botón verde con un guión para alejar o en las flechas verdes para mapas adyacentes.


METAR-TAF: